Time;durP1;ratioP1;P1;durP2;ratioP2;P2;SDS_P1;SDS_P2;PMS_P1;PMS_P2;Temp;Humidity;BMP_temperature;BMP_pressure;BME280_temperature;BME280_humidity;BME280_pressure;Samples;Min_cycle;Max_cycle;Signal;HPM_P1;HPM_P2
2021/05/30 00:01:07;;;;;;;7.78;4.50;;;19.10;99.90;;;;;;4336179;32;20163;-73
2021/05/30 00:03:33;;;;;;;6.00;4.00;;;19.10;99.90;;;;;;4360106;32;20152;-73
2021/05/30 00:05:59;;;;;;;7.87;3.90;;;19.30;99.90;;;;;;4339368;33;20111;-70
2021/05/30 00:08:25;;;;;;;6.57;3.53;;;19.20;99.90;;;;;;4332176;32;20078;-71
2021/05/30 00:10:52;;;;;;;5.57;3.70;;;19.40;99.90;;;;;;4360060;32;20078;-72
2021/05/30 00:13:18;;;;;;;6.80;3.28;;;19.40;99.90;;;;;;4347016;32;20167;-73
2021/05/30 00:15:46;;;;;;;5.55;3.62;;;19.30;99.90;;;;;;4345700;32;20085;-73
2021/05/30 00:18:12;;;;;;;7.15;3.28;;;19.20;99.90;;;;;;4344755;33;20151;-72
2021/05/30 00:20:39;;;;;;;5.90;3.33;;;19.60;99.90;;;;;;4344350;33;20529;-73
2021/05/30 00:23:05;;;;;;;6.28;3.37;;;19.30;99.90;;;;;;4333188;32;20069;-73
2021/05/30 00:25:31;;;;;;;7.25;3.70;;;19.50;99.90;;;;;;4338303;32;20075;-74
2021/05/30 00:27:57;;;;;;;5.30;3.53;;;19.50;99.90;;;;;;4322862;32;20082;-73
2021/05/30 00:30:24;;;;;;;6.80;3.78;;;19.50;99.90;;;;;;4335903;32;20081;-73
2021/05/30 00:32:50;;;;;;;6.05;3.80;;;19.60;99.90;;;;;;4347534;32;20093;-72
2021/05/30 00:35:16;;;;;;;6.78;4.03;;;19.50;99.90;;;;;;4320546;33;20079;-72
2021/05/30 00:37:42;;;;;;;7.80;4.25;;;19.60;99.90;;;;;;4351006;32;20229;-72
2021/05/30 00:40:09;;;;;;;7.22;4.85;;;19.40;99.90;;;;;;4361062;32;20626;-72
2021/05/30 00:42:35;;;;;;;9.43;4.90;;;19.50;99.90;;;;;;4352341;32;20170;-72
2021/05/30 00:45:01;;;;;;;7.05;4.30;;;19.60;99.90;;;;;;4347343;32;20076;-73
2021/05/30 00:47:27;;;;;;;7.10;4.30;;;19.40;99.90;;;;;;4359535;32;20148;-72
2021/05/30 00:49:53;;;;;;;10.32;4.70;;;19.50;99.90;;;;;;4360785;32;20094;-73
2021/05/30 00:52:20;;;;;;;8.02;4.78;;;19.50;99.90;;;;;;4329838;32;20085;-74
2021/05/30 00:54:46;;;;;;;7.75;4.07;;;19.50;99.90;;;;;;4335053;32;20167;-73
2021/05/30 00:57:12;;;;;;;8.55;4.25;;;19.40;99.90;;;;;;4322329;32;20083;-72
2021/05/30 00:59:38;;;;;;;9.43;4.30;;;19.40;99.90;;;;;;4323802;32;20150;-72
2021/05/30 01:02:05;;;;;;;6.82;4.45;;;19.30;99.90;;;;;;4341097;33;20114;-71
2021/05/30 01:04:31;;;;;;;6.70;4.28;;;19.30;99.90;;;;;;4358112;32;20175;-73
2021/05/30 01:06:58;;;;;;;7.10;3.87;;;19.40;99.90;;;;;;4334713;32;20175;-72
2021/05/30 01:09:26;;;;;;;7.15;4.18;;;19.40;99.90;;;;;;4347317;32;20493;-73
2021/05/30 01:11:52;;;;;;;5.18;3.65;;;19.40;99.90;;;;;;4342439;32;20067;-72
2021/05/30 01:14:19;;;;;;;6.32;3.53;;;19.40;99.90;;;;;;4337374;32;20165;-72
2021/05/30 01:16:45;;;;;;;7.65;3.70;;;19.30;99.90;;;;;;4324364;32;20073;-71
2021/05/30 01:19:12;;;;;;;6.43;3.50;;;19.20;99.90;;;;;;4320066;33;20464;-72
2021/05/30 01:21:40;;;;;;;6.37;3.75;;;19.30;99.90;;;;;;4320507;32;20090;-73
2021/05/30 01:24:07;;;;;;;5.47;3.80;;;19.30;99.90;;;;;;4326676;33;20068;-73
2021/05/30 01:26:33;;;;;;;6.37;3.60;;;19.10;99.90;;;;;;4323079;32;20195;-73
2021/05/30 01:28:59;;;;;;;6.25;3.55;;;19.10;99.90;;;;;;4345946;32;20139;-72
2021/05/30 01:31:26;;;;;;;5.85;3.75;;;19.00;99.90;;;;;;4347165;32;20070;-73
2021/05/30 01:33:52;;;;;;;6.60;4.70;;;18.90;99.90;;;;;;4349191;32;20086;-72
2021/05/30 01:36:18;;;;;;;7.18;4.80;;;18.90;99.90;;;;;;4342073;32;20070;-73
2021/05/30 01:38:44;;;;;;;7.93;4.45;;;18.90;99.90;;;;;;4361488;32;20158;-72
2021/05/30 01:41:10;;;;;;;7.78;5.12;;;18.90;99.90;;;;;;4336433;32;20519;-71
2021/05/30 01:43:37;;;;;;;8.82;5.05;;;18.90;99.90;;;;;;4336579;32;20134;-71
2021/05/30 01:46:03;;;;;;;7.53;5.12;;;18.90;99.90;;;;;;4337432;32;20086;-72
2021/05/30 01:48:29;;;;;;;11.57;5.93;;;18.90;99.90;;;;;;4336532;33;20067;-72
2021/05/30 01:50:56;;;;;;;8.40;5.03;;;19.00;99.90;;;;;;4323832;32;20069;-72
2021/05/30 01:53:35;;;;;;;7.45;5.70;;;19.10;99.90;;;;;;4331053;33;20086;-73
2021/05/30 01:58:27;;;;;;;9.30;6.47;;;19.10;99.90;;;;;;4346328;33;20071;-73
2021/05/30 02:00:53;;;;;;;10.85;5.80;;;19.20;99.90;;;;;;4336226;32;20087;-73
2021/05/30 02:03:20;;;;;;;9.52;5.93;;;19.20;99.90;;;;;;4324744;32;20179;-72
2021/05/30 02:05:49;;;;;;;10.20;5.65;;;19.20;99.90;;;;;;4349116;32;20079;-72
2021/05/30 02:08:15;;;;;;;8.70;5.82;;;19.20;99.90;;;;;;4326854;32;20142;-72
2021/05/30 02:10:42;;;;;;;9.88;6.12;;;19.30;99.90;;;;;;4335995;32;20093;-72
2021/05/30 02:13:08;;;;;;;9.13;5.72;;;19.40;99.90;;;;;;4337545;32;20090;-73
2021/05/30 02:15:34;;;;;;;13.32;6.97;;;19.40;99.90;;;;;;4363034;32;20083;-72
2021/05/30 02:18:01;;;;;;;10.25;6.05;;;19.40;99.90;;;;;;4337033;32;20498;-73
2021/05/30 02:20:32;;;;;;;9.13;6.00;;;19.30;99.90;;;;;;4326239;33;20102;-72
2021/05/30 02:22:58;;;;;;;11.90;6.35;;;19.50;99.90;;;;;;4312417;32;20088;-72
2021/05/30 02:25:24;;;;;;;9.80;6.22;;;19.50;99.90;;;;;;4348570;32;20085;-72
2021/05/30 02:27:52;;;;;;;12.35;6.45;;;19.50;99.90;;;;;;4336531;32;20525;-73
2021/05/30 02:30:19;;;;;;;10.10;6.68;;;19.60;99.90;;;;;;4346735;33;20073;-72
2021/05/30 02:32:46;;;;;;;11.50;6.50;;;19.60;99.90;;;;;;4335139;32;20097;-73
2021/05/30 02:35:12;;;;;;;11.40;6.53;;;19.50;99.90;;;;;;4337196;32;20081;-73
2021/05/30 02:37:38;;;;;;;9.30;6.25;;;19.40;99.90;;;;;;4348776;32;20069;-73
2021/05/30 02:40:06;;;;;;;11.68;7.03;;;19.50;99.90;;;;;;4336447;32;20535;-73
2021/05/30 02:42:32;;;;;;;10.85;6.78;;;19.60;99.90;;;;;;4336490;32;20066;-72
2021/05/30 02:44:58;;;;;;;9.63;6.43;;;19.60;99.90;;;;;;4361247;32;20130;-71
2021/05/30 02:47:25;;;;;;;10.77;6.75;;;19.70;99.90;;;;;;4336800;33;20091;-73
2021/05/30 02:49:51;;;;;;;11.57;6.68;;;19.80;99.90;;;;;;4335747;33;20066;-72
2021/05/30 02:52:17;;;;;;;10.65;6.28;;;19.90;99.90;;;;;;4333728;33;20517;-74
2021/05/30 02:54:43;;;;;;;9.10;6.72;;;20.00;99.90;;;;;;4358547;32;20169;-72
2021/05/30 02:57:09;;;;;;;9.63;5.97;;;20.00;99.90;;;;;;4349849;32;20207;-71
2021/05/30 02:59:35;;;;;;;9.32;6.20;;;19.90;99.90;;;;;;4361238;32;20102;-72
2021/05/30 03:02:05;;;;;;;8.38;5.72;;;20.00;99.90;;;;;;4354503;32;20071;-73
2021/05/30 03:04:31;;;;;;;10.18;5.82;;;20.10;99.90;;;;;;4325012;33;20063;-72
2021/05/30 03:06:57;;;;;;;8.48;5.75;;;20.30;99.90;;;;;;4323597;32;20083;-71
2021/05/30 03:09:23;;;;;;;11.38;6.40;;;20.40;99.90;;;;;;4325643;32;20094;-73
2021/05/30 03:11:49;;;;;;;12.05;6.43;;;20.40;99.90;;;;;;4329621;32;20090;-72
2021/05/30 03:14:15;;;;;;;9.65;6.03;;;20.50;99.90;;;;;;4333429;33;20157;-72
2021/05/30 03:16:42;;;;;;;9.75;5.60;;;20.50;99.90;;;;;;4342823;32;20161;-71
2021/05/30 03:19:08;;;;;;;9.73;5.72;;;20.50;99.90;;;;;;4345051;33;20086;-73
2021/05/30 03:21:34;;;;;;;10.07;6.05;;;20.70;99.90;;;;;;4359191;32;20256;-72
2021/05/30 03:24:00;;;;;;;10.75;6.35;;;20.80;99.90;;;;;;4317085;32;20059;-73
2021/05/30 03:26:27;;;;;;;10.00;6.62;;;20.70;99.90;;;;;;4345106;32;20460;-73
2021/05/30 03:28:53;;;;;;;7.68;5.50;;;20.80;99.90;;;;;;4335568;32;20076;-72
2021/05/30 03:31:19;;;;;;;11.68;5.87;;;20.70;99.90;;;;;;4324139;32;20070;-73
2021/05/30 03:33:54;;;;;;;9.32;5.32;;;20.70;99.90;;;;;;3821761;37;20051;-73
2021/05/30 03:36:25;;;;;;;10.05;5.10;;;20.80;99.90;;;;;;4384388;32;20156;-72
2021/05/30 03:39:00;;;;;;;8.73;5.70;;;21.00;99.90;;;;;;4357222;32;20589;-72
2021/05/30 03:41:33;;;;;;;8.52;5.57;;;21.00;99.90;;;;;;4374218;32;20155;-72
2021/05/30 03:43:59;;;;;;;10.02;6.15;;;21.00;99.90;;;;;;4347300;32;20155;-73
2021/05/30 03:46:26;;;;;;;8.80;5.53;;;20.90;99.90;;;;;;4358963;32;20094;-73
2021/05/30 03:48:52;;;;;;;7.55;5.25;;;21.10;99.90;;;;;;4348980;32;20062;-72
2021/05/30 03:51:18;;;;;;;9.52;5.50;;;21.00;99.90;;;;;;4347696;32;20485;-72
2021/05/30 03:53:44;;;;;;;8.05;5.10;;;21.20;99.90;;;;;;4347999;32;20077;-73
2021/05/30 03:56:11;;;;;;;6.97;5.00;;;21.30;99.90;;;;;;4345069;32;20089;-73
2021/05/30 03:58:37;;;;;;;7.70;5.03;;;21.30;99.90;;;;;;4376809;32;20121;-72
2021/05/30 04:01:03;;;;;;;6.62;4.78;;;21.20;99.90;;;;;;4372496;32;20212;-72
2021/05/30 04:03:29;;;;;;;7.50;5.62;;;21.30;99.90;;;;;;4359734;32;20452;-73
2021/05/30 04:05:55;;;;;;;6.37;5.03;;;21.40;99.90;;;;;;4353194;32;20606;-72
2021/05/30 04:08:23;;;;;;;7.35;4.80;;;21.50;99.90;;;;;;4358108;32;20508;-72
2021/05/30 04:10:50;;;;;;;8.02;5.18;;;21.40;99.90;;;;;;4361576;32;20161;-72
2021/05/30 04:13:16;;;;;;;10.38;5.43;;;21.30;99.90;;;;;;4334738;32;20169;-73
2021/05/30 04:15:42;;;;;;;8.48;5.30;;;21.00;99.90;;;;;;4339149;32;20505;-71
2021/05/30 04:18:08;;;;;;;8.68;5.50;;;20.90;99.90;;;;;;4356650;32;20153;-72
2021/05/30 04:20:35;;;;;;;9.65;5.57;;;20.90;99.90;;;;;;4350173;32;20094;-71
2021/05/30 04:23:01;;;;;;;8.73;5.18;;;21.00;99.90;;;;;;4347548;32;20503;-73
2021/05/30 04:25:27;;;;;;;7.00;5.20;;;21.10;99.90;;;;;;4337727;32;20062;-73
2021/05/30 04:27:53;;;;;;;8.48;5.87;;;21.30;99.90;;;;;;4327504;32;20071;-72
2021/05/30 04:30:20;;;;;;;8.20;5.62;;;21.70;99.90;;;;;;4342728;32;20094;-73
2021/05/30 04:32:46;;;;;;;6.70;4.95;;;22.70;99.90;;;;;;4357402;32;20189;-73
2021/05/30 04:35:13;;;;;;;8.82;5.43;;;23.10;99.90;;;;;;4359885;32;20067;-72
2021/05/30 04:37:39;;;;;;;7.72;4.93;;;22.70;99.90;;;;;;4356247;32;20140;-71
2021/05/30 04:40:06;;;;;;;8.45;5.00;;;24.10;99.90;;;;;;4353289;32;20155;-73
2021/05/30 04:42:33;;;;;;;11.35;5.18;;;24.60;99.90;;;;;;4358299;32;20068;-72
2021/05/30 04:44:59;;;;;;;13.25;5.20;;;24.10;99.90;;;;;;4338780;32;20101;-73
2021/05/30 04:47:25;;;;;;;8.18;4.90;;;24.30;99.90;;;;;;4347122;32;20087;-72
2021/05/30 04:49:51;;;;;;;10.27;5.10;;;23.70;99.90;;;;;;4344824;32;20503;-72
2021/05/30 04:52:18;;;;;;;7.47;4.47;;;23.10;99.90;;;;;;4353529;32;20531;-72
2021/05/30 04:54:44;;;;;;;6.60;4.57;;;22.70;99.90;;;;;;4360004;32;20066;-73
2021/05/30 04:57:11;;;;;;;9.10;4.70;;;24.60;99.90;;;;;;4337553;32;20199;-72
2021/05/30 04:59:37;;;;;;;9.00;4.85;;;25.40;99.90;;;;;;4331011;32;20063;-72
2021/05/30 05:02:04;;;;;;;8.98;4.95;;;25.70;99.90;;;;;;4355994;32;20078;-73
2021/05/30 05:04:30;;;;;;;8.77;5.47;;;26.10;99.90;;;;;;4346232;32;20150;-72
2021/05/30 05:06:56;;;;;;;8.40;5.10;;;26.60;99.90;;;;;;4335847;32;20074;-73
2021/05/30 05:09:22;;;;;;;9.05;5.07;;;26.80;99.90;;;;;;4339275;32;20062;-72
2021/05/30 05:11:48;;;;;;;8.88;4.90;;;26.20;99.90;;;;;;4356180;32;20244;-72
2021/05/30 05:14:15;;;;;;;8.82;5.22;;;24.90;99.90;;;;;;4343782;32;20509;-73
2021/05/30 05:16:41;;;;;;;7.47;4.20;;;24.30;99.90;;;;;;4336772;32;20171;-72
2021/05/30 05:19:07;;;;;;;9.30;4.80;;;23.90;99.90;;;;;;4351788;32;20173;-73
2021/05/30 05:21:33;;;;;;;8.48;4.85;;;24.20;99.90;;;;;;4358245;32;20090;-72
2021/05/30 05:23:59;;;;;;;8.80;4.47;;;24.10;99.90;;;;;;4342254;32;20074;-72
2021/05/30 05:26:25;;;;;;;8.57;3.80;;;24.10;99.90;;;;;;4347416;32;20189;-73
2021/05/30 05:28:53;;;;;;;5.50;4.20;;;24.60;99.90;;;;;;4348105;32;20066;-73
2021/05/30 05:31:19;;;;;;;7.35;4.12;;;25.70;99.90;;;;;;4362371;32;20227;-71
2021/05/30 05:33:45;;;;;;;6.93;3.95;;;26.30;99.90;;;;;;4350971;32;20538;-73
2021/05/30 05:36:12;;;;;;;7.87;4.40;;;25.70;99.90;;;;;;4346401;32;20069;-72
2021/05/30 05:38:38;;;;;;;6.72;4.30;;;24.70;99.90;;;;;;4334766;32;20097;-72
2021/05/30 05:41:04;;;;;;;5.60;4.15;;;24.20;99.90;;;;;;4362337;32;20073;-73
2021/05/30 05:43:31;;;;;;;5.47;4.05;;;24.30;99.90;;;;;;4362048;32;20173;-73
2021/05/30 05:45:57;;;;;;;6.12;3.78;;;24.20;99.90;;;;;;4341563;32;20509;-73
2021/05/30 05:48:23;;;;;;;6.45;4.12;;;24.10;99.90;;;;;;4359598;32;20151;-71
2021/05/30 05:50:49;;;;;;;8.60;3.80;;;24.00;99.90;;;;;;4350074;32;20075;-71
2021/05/30 05:53:16;;;;;;;7.95;3.75;;;23.80;99.90;;;;;;4336267;32;20086;-71
2021/05/30 05:55:42;;;;;;;9.02;3.90;;;23.50;99.90;;;;;;4341847;32;20504;-71
2021/05/30 05:58:08;;;;;;;6.93;3.83;;;23.50;99.90;;;;;;4347656;32;20087;-73
2021/05/30 06:00:35;;;;;;;8.63;4.10;;;23.50;99.90;;;;;;4350812;32;20080;-73
2021/05/30 06:03:01;;;;;;;9.90;3.90;;;23.40;99.90;;;;;;4336714;32;20070;-72
2021/05/30 06:05:28;;;;;;;6.97;3.47;;;23.70;99.90;;;;;;4367547;32;20101;-73
2021/05/30 06:07:55;;;;;;;6.40;3.65;;;23.70;99.90;;;;;;4355646;32;20063;-71
2021/05/30 06:10:24;;;;;;;8.35;3.90;;;24.00;99.90;;;;;;4344190;32;20085;-73
2021/05/30 06:12:56;;;;;;;9.70;3.85;;;24.10;99.90;;;;;;4319738;32;20165;-73
2021/05/30 06:15:24;;;;;;;8.32;4.40;;;24.00;99.90;;;;;;4324117;32;20076;-72
2021/05/30 06:18:00;;;;;;;8.68;3.97;;;24.50;99.90;;;;;;4355995;32;20073;-72
2021/05/30 06:20:26;;;;;;;;;;;24.70;99.90;;;;;;4340879;32;20074;-72
2021/05/30 06:22:53;;;;;;;6.53;4.20;;;24.60;99.90;;;;;;4362161;32;20447;-72
2021/05/30 06:25:20;;;;;;;6.40;4.03;;;24.90;99.90;;;;;;4354654;32;20144;-72
2021/05/30 06:27:47;;;;;;;7.85;4.60;;;25.00;99.90;;;;;;4350201;32;20139;-70
2021/05/30 06:30:14;;;;;;;7.78;4.57;;;24.80;99.90;;;;;;4336144;32;20086;-71
2021/05/30 06:32:40;;;;;;;7.45;4.15;;;24.30;99.90;;;;;;4347800;32;20501;-72
2021/05/30 06:35:09;;;;;;;6.78;4.35;;;24.30;99.90;;;;;;4338928;32;20085;-73
2021/05/30 06:37:35;;;;;;;7.87;4.80;;;24.70;99.90;;;;;;4355079;32;20584;-73
2021/05/30 06:40:02;;;;;;;7.28;4.22;;;24.40;99.90;;;;;;4341975;32;20075;-72
2021/05/30 06:42:28;;;;;;;8.25;4.50;;;24.60;99.90;;;;;;4359239;32;20078;-72
2021/05/30 06:44:54;;;;;;;5.43;4.35;;;24.60;99.90;;;;;;4339432;32;20156;-72
2021/05/30 06:47:21;;;;;;;6.40;4.10;;;25.60;99.90;;;;;;4343804;32;20147;-70
2021/05/30 06:49:47;;;;;;;6.40;4.18;;;24.90;99.90;;;;;;4349688;32;20074;-72
2021/05/30 06:52:13;;;;;;;7.65;4.18;;;25.00;99.90;;;;;;4359299;32;20166;-72
2021/05/30 06:54:39;;;;;;;6.95;4.00;;;24.90;99.90;;;;;;4350055;32;20086;-70
2021/05/30 06:57:06;;;;;;;10.18;4.72;;;24.30;99.90;;;;;;4337920;32;20058;-72
2021/05/30 06:59:32;;;;;;;7.03;3.78;;;24.40;99.90;;;;;;4350268;32;20074;-72
2021/05/30 07:01:58;;;;;;;8.32;4.37;;;24.90;99.90;;;;;;4371685;32;20241;-73
2021/05/30 07:04:27;;;;;;;7.97;4.18;;;25.40;99.90;;;;;;4353761;32;20076;-73
2021/05/30 07:06:54;;;;;;;11.12;5.00;;;25.30;99.90;;;;;;4353677;32;20107;-77
2021/05/30 07:09:20;;;;;;;10.70;3.90;;;25.70;99.90;;;;;;4326721;32;20065;-70
2021/05/30 07:11:47;;;;;;;8.90;4.12;;;25.70;99.90;;;;;;4352763;32;20061;-71
2021/05/30 07:14:13;;;;;;;8.73;4.03;;;25.40;99.90;;;;;;4338724;32;20062;-73
2021/05/30 07:16:39;;;;;;;7.07;3.97;;;25.60;99.80;;;;;;4339960;32;20494;-71
2021/05/30 07:19:05;;;;;;;9.20;3.80;;;25.80;99.90;;;;;;4313012;32;20070;-72
2021/05/30 07:21:32;;;;;;;6.37;3.80;;;25.20;99.90;;;;;;4340726;32;20101;-73
2021/05/30 07:23:58;;;;;;;6.62;3.97;;;25.40;99.90;;;;;;4353938;32;20089;-72
2021/05/30 07:26:24;;;;;;;9.05;3.87;;;25.60;98.30;;;;;;4350136;32;20251;-72
2021/05/30 07:28:53;;;;;;;8.38;4.18;;;26.20;94.60;;;;;;4359279;32;20078;-71
2021/05/30 07:31:19;;;;;;;5.57;3.30;;;26.60;94.20;;;;;;4312878;32;20110;-70
2021/05/30 07:33:46;;;;;;;7.65;3.53;;;27.00;93.20;;;;;;4326774;32;20074;-71
2021/05/30 07:36:12;;;;;;;5.35;3.75;;;27.60;93.10;;;;;;4344915;32;20089;-72
2021/05/30 07:38:39;;;;;;;5.70;3.97;;;27.40;94.10;;;;;;4337545;32;20089;-72
2021/05/30 07:41:05;;;;;;;6.20;4.15;;;26.50;97.40;;;;;;4347517;32;20077;-72
2021/05/30 07:43:31;;;;;;;6.87;3.90;;;26.20;94.20;;;;;;4340043;32;20078;-73
2021/05/30 07:45:57;;;;;;;6.47;3.72;;;26.60;95.80;;;;;;4350068;32;20063;-70
2021/05/30 07:48:23;;;;;;;6.62;4.20;;;26.70;94.20;;;;;;4350990;32;20082;-72
2021/05/30 07:50:50;;;;;;;9.25;4.25;;;25.70;97.00;;;;;;4360001;32;20081;-73
2021/05/30 07:53:16;;;;;;;8.38;4.10;;;25.70;98.60;;;;;;4351698;32;20074;-73
2021/05/30 07:55:43;;;;;;;6.00;3.33;;;25.80;98.20;;;;;;4338131;32;20496;-73
2021/05/30 07:58:09;;;;;;;5.62;4.07;;;26.70;95.80;;;;;;4324325;32;20472;-72
2021/05/30 08:00:36;;;;;;;7.72;3.80;;;27.60;94.20;;;;;;4337566;32;20148;-71
2021/05/30 08:03:02;;;;;;;9.90;4.25;;;26.30;93.00;;;;;;4334694;32;20077;-72
2021/05/30 08:05:28;;;;;;;6.10;3.75;;;26.40;93.10;;;;;;4347101;32;20145;-72
2021/05/30 08:07:55;;;;;;;4.90;3.90;;;26.20;85.40;;;;;;4355187;32;20074;-73
2021/05/30 08:10:22;;;;;;;6.35;4.00;;;25.80;93.00;;;;;;4351371;32;20453;-72
2021/05/30 08:12:49;;;;;;;7.60;4.10;;;26.10;95.30;;;;;;4339100;32;20086;-72
2021/05/30 08:15:16;;;;;;;5.60;3.90;;;26.80;93.30;;;;;;4358424;32;20082;-72
2021/05/30 08:17:44;;;;;;;7.53;4.12;;;27.10;93.30;;;;;;4326369;32;20051;-72
2021/05/30 08:20:12;;;;;;;7.35;3.95;;;26.70;91.20;;;;;;4346842;32;20157;-72
2021/05/30 08:22:39;;;;;;;4.22;3.33;;;26.50;86.40;;;;;;4340128;32;20584;-72
2021/05/30 08:25:06;;;;;;;5.53;3.75;;;26.40;85.20;;;;;;4352438;32;20485;-72
2021/05/30 08:27:32;;;;;;;5.55;3.45;;;26.80;80.90;;;;;;4351949;32;20059;-71
2021/05/30 08:29:58;;;;;;;4.55;3.37;;;27.00;79.20;;;;;;4327843;32;20089;-72
2021/05/30 08:32:25;;;;;;;7.55;3.80;;;26.80;80.90;;;;;;4352248;32;20173;-72
2021/05/30 08:34:51;;;;;;;5.97;3.58;;;26.40;79.10;;;;;;4350767;32;20081;-72
2021/05/30 08:37:18;;;;;;;5.20;3.67;;;26.50;82.30;;;;;;4328986;32;20152;-72
2021/05/30 08:39:48;;;;;;;5.72;3.47;;;26.70;82.50;;;;;;4357323;32;20089;-72
2021/05/30 08:42:15;;;;;;;5.93;3.75;;;26.80;81.50;;;;;;4337255;32;20058;-71
2021/05/30 08:44:41;;;;;;;6.90;3.90;;;26.70;85.50;;;;;;4346848;32;20145;-73
2021/05/30 08:47:07;;;;;;;6.53;3.80;;;26.70;82.90;;;;;;4325136;32;20073;-72
2021/05/30 08:49:33;;;;;;;4.78;3.12;;;27.20;78.80;;;;;;4342664;32;20132;-72
2021/05/30 08:51:59;;;;;;;5.12;2.90;;;27.10;77.20;;;;;;4337051;32;20083;-73
2021/05/30 08:54:27;;;;;;;4.10;2.87;;;27.30;73.30;;;;;;4333866;32;20075;-72
2021/05/30 08:56:53;;;;;;;7.50;3.20;;;27.40;70.10;;;;;;4349458;32;20078;-72
2021/05/30 08:59:33;;;;;;;4.78;3.22;;;28.10;66.30;;;;;;4328973;32;20117;-73
2021/05/30 09:02:13;;;;;;;6.15;3.72;;;27.20;68.80;;;;;;4344618;32;20082;-73
2021/05/30 09:04:41;;;;;;;6.60;3.33;;;27.30;68.50;;;;;;4346832;32;20150;-73
2021/05/30 09:07:08;;;;;;;5.22;3.25;;;27.60;69.90;;;;;;4348599;32;20059;-73
2021/05/30 09:09:41;;;;;;;5.28;3.20;;;28.00;68.50;;;;;;4330154;32;20092;-74
2021/05/30 09:12:35;;;;;;;5.95;3.28;;;27.70;66.70;;;;;;4354399;32;20141;-72
2021/05/30 09:15:09;;;;;;;5.50;3.45;;;28.10;68.80;;;;;;4348998;32;20077;-73
2021/05/30 09:17:36;;;;;;;8.50;3.80;;;27.40;70.70;;;;;;4349121;32;20134;-72
2021/05/30 09:20:05;;;;;;;6.25;3.45;;;27.40;70.50;;;;;;4355904;32;20087;-75
2021/05/30 09:22:36;;;;;;;6.25;2.80;;;27.60;70.70;;;;;;4361615;32;20146;-72
2021/05/30 09:25:08;;;;;;;4.85;3.33;;;27.50;73.90;;;;;;4351705;32;20570;-73
2021/05/30 09:27:36;;;;;;;8.55;3.20;;;27.10;73.50;;;;;;4360902;32;20054;-72
2021/05/30 09:30:39;;;;;;;4.47;3.37;;;27.60;67.30;;;;;;4342662;32;20071;-73
2021/05/30 09:33:08;;;;;;;5.43;3.20;;;27.80;60.50;;;;;;4349262;32;20080;-72
2021/05/30 09:35:37;;;;;;;6.22;2.90;;;27.30;66.60;;;;;;4339918;32;20149;-73
2021/05/30 09:38:25;;;;;;;6.32;2.95;;;27.70;67.70;;;;;;4355791;32;20070;-73
2021/05/30 09:40:57;;;;;;;4.35;2.70;;;28.40;65.10;;;;;;4362606;32;20074;-74
2021/05/30 09:43:31;;;;;;;5.28;3.03;;;28.10;64.10;;;;;;4343782;32;20070;-72
2021/05/30 09:46:13;;;;;;;4.35;3.00;;;27.40;66.40;;;;;;4330113;32;20078;-71
2021/05/30 09:48:52;;;;;;;4.47;2.80;;;28.10;65.00;;;;;;4348529;32;20059;-73
2021/05/30 09:51:26;;;;;;;6.32;3.28;;;28.80;62.90;;;;;;4360774;32;20063;-71
2021/05/30 09:54:02;;;;;;;4.28;2.90;;;28.40;58.90;;;;;;4336473;32;20097;-71
2021/05/30 09:56:37;;;;;;;3.90;2.62;;;28.10;58.10;;;;;;4348512;32;20081;-72
2021/05/30 09:59:17;;;;;;;5.13;2.40;;;28.00;51.80;;;;;;4363855;32;20082;-73
2021/05/30 10:02:00;;;;;;;3.92;2.70;;;27.70;47.60;;;;;;4343095;32;20081;-74
2021/05/30 10:04:35;;;;;;;4.50;2.45;;;28.00;49.30;;;;;;4347243;32;20154;-73
2021/05/30 10:07:04;;;;;;;5.03;2.58;;;27.90;51.00;;;;;;4336443;32;20055;-72
2021/05/30 10:09:30;;;;;;;3.92;2.53;;;28.20;50.80;;;;;;4347818;32;20581;-72
2021/05/30 10:11:57;;;;;;;5.18;2.78;;;28.30;53.60;;;;;;4328492;32;20449;-73
2021/05/30 10:14:24;;;;;;;4.12;2.95;;;28.30;52.30;;;;;;4331912;32;20075;-71
2021/05/30 10:16:50;;;;;;;4.37;2.78;;;28.30;51.30;;;;;;4335018;32;20571;-72
2021/05/30 10:19:31;;;;;;;4.87;3.20;;;27.90;49.40;;;;;;4347245;32;20067;-73
2021/05/30 10:21:58;;;;;;;4.47;2.58;;;27.80;51.00;;;;;;4330898;32;20077;-72
2021/05/30 10:24:25;;;;;;;3.45;2.58;;;28.30;50.80;;;;;;4332070;32;20090;-73
2021/05/30 10:27:15;;;;;;;4.37;2.62;;;27.80;48.20;;;;;;4335219;32;20077;-71
2021/05/30 10:29:41;;;;;;;5.32;3.12;;;27.70;49.60;;;;;;4352151;32;20082;-72
2021/05/30 10:32:18;;;;;;;4.68;3.00;;;27.80;47.20;;;;;;4344687;32;20081;-73
2021/05/30 10:35:25;;;;;;;3.95;2.92;;;27.90;51.60;;;;;;4350175;32;20062;-73
2021/05/30 10:37:57;;;;;;;5.90;3.10;;;27.90;58.00;;;;;;4343187;32;20062;-72
2021/05/30 10:40:23;;;;;;;4.07;2.75;;;27.90;52.50;;;;;;4332302;32;20160;-73
2021/05/30 10:43:13;;;;;;;6.18;3.17;;;28.00;52.80;;;;;;4361033;32;20086;-72
2021/05/30 10:45:42;;;;;;;6.50;3.65;;;27.80;56.20;;;;;;4368178;32;20078;-73
2021/05/30 10:48:19;;;;;;;8.13;4.55;;;27.60;66.80;;;;;;4367387;32;20456;-74
2021/05/30 10:50:58;;;;;;;6.05;4.45;;;27.20;73.70;;;;;;4336932;32;20082;-71
2021/05/30 10:53:46;;;;;;;7.10;4.75;;;27.40;80.00;;;;;;4341419;32;20084;-72
2021/05/30 10:56:37;;;;;;;7.72;4.50;;;27.20;82.60;;;;;;4352635;32;20522;-74
2021/05/30 10:59:04;;;;;;;8.85;5.18;;;26.60;83.30;;;;;;4347019;32;20502;-74
2021/05/30 11:01:49;;;;;;;11.43;4.75;;;26.80;87.40;;;;;;4348059;32;20159;-71
2021/05/30 11:06:57;;;;;;;7.57;4.75;;;26.70;84.40;;;;;;4361541;32;20163;-71
2021/05/30 11:09:44;;;;;;;8.07;5.57;;;26.60;84.90;;;;;;4323883;32;20073;-72
2021/05/30 11:12:36;;;;;;;7.30;4.72;;;26.70;89.00;;;;;;4333243;32;20110;-73
2021/05/30 11:15:25;;;;;;;9.38;5.62;;;26.60;90.50;;;;;;4349666;32;20090;-72
2021/05/30 11:17:59;;;;;;;9.35;4.75;;;26.80;89.30;;;;;;4342992;32;20589;-73
2021/05/30 11:20:45;;;;;;;6.60;4.65;;;26.50;83.80;;;;;;4358919;32;20074;-72
2021/05/30 11:23:17;;;;;;;6.53;4.97;;;26.50;85.90;;;;;;4348771;32;20094;-71
2021/05/30 11:25:50;;;;;;;8.52;5.07;;;26.90;82.80;;;;;;4315368;32;20433;-73
2021/05/30 11:28:21;;;;;;;7.05;5.10;;;27.10;78.20;;;;;;4344398;32;20077;-74
2021/05/30 11:31:11;;;;;;;8.13;4.93;;;27.10;78.90;;;;;;4335514;32;20161;-71
2021/05/30 11:34:03;;;;;;;6.97;4.12;;;27.20;74.70;;;;;;4350373;32;20067;-70
2021/05/30 11:36:37;;;;;;;10.07;4.90;;;27.90;72.40;;;;;;4336984;32;20069;-71
2021/05/30 11:39:17;;;;;;;5.80;4.07;;;27.60;73.40;;;;;;4335495;32;20129;-73
2021/05/30 11:41:52;;;;;;;6.45;4.15;;;27.70;73.90;;;;;;4331332;32;20161;-72
2021/05/30 11:44:20;;;;;;;8.55;4.40;;;27.40;76.00;;;;;;4330784;32;20086;-72
2021/05/30 11:46:54;;;;;;;7.53;4.80;;;27.30;80.80;;;;;;4360556;32;20074;-72
2021/05/30 11:49:25;;;;;;;9.48;5.07;;;27.10;80.80;;;;;;4325385;32;20489;-73
2021/05/30 11:52:04;;;;;;;5.82;4.80;;;27.10;81.70;;;;;;4327913;32;20159;-71
2021/05/30 11:54:42;;;;;;;9.20;5.10;;;26.80;82.50;;;;;;4374121;32;20173;-72
2021/05/30 11:57:11;;;;;;;8.50;4.78;;;26.90;84.50;;;;;;4363613;32;20097;-72
2021/05/30 11:59:40;;;;;;;8.38;4.60;;;27.00;80.30;;;;;;4328871;32;20517;-71
2021/05/30 12:02:07;;;;;;;5.85;4.43;;;27.40;77.90;;;;;;4359522;32;20069;-73
2021/05/30 12:04:40;;;;;;;7.68;4.40;;;27.60;75.10;;;;;;4341245;32;20074;-73
2021/05/30 12:07:10;;;;;;;5.93;3.97;;;27.80;71.60;;;;;;4338311;32;20506;-73
2021/05/30 12:09:47;;;;;;;7.85;3.80;;;27.80;68.40;;;;;;4326254;32;20086;-73
2021/05/30 12:12:43;;;;;;;7.15;3.95;;;27.60;64.00;;;;;;4332617;32;20074;-74
2021/05/30 12:15:16;;;;;;;7.70;4.25;;;27.50;64.90;;;;;;4352209;32;20101;-71
2021/05/30 12:18:04;;;;;;;7.22;3.83;;;28.40;58.70;;;;;;4358696;32;20109;-72
2021/05/30 12:20:36;;;;;;;7.15;4.22;;;28.60;59.80;;;;;;4338026;32;20079;-70
2021/05/30 12:23:16;;;;;;;5.93;3.00;;;28.40;50.00;;;;;;4339975;32;20074;-71
2021/05/30 12:25:56;;;;;;;6.20;3.85;;;28.70;47.70;;;;;;4346782;32;20133;-72
2021/05/30 12:28:37;;;;;;;6.82;3.80;;;28.50;54.20;;;;;;4348026;32;20066;-72
2021/05/30 12:31:17;;;;;;;8.93;3.40;;;28.30;54.90;;;;;;4340981;32;20066;-72
2021/05/30 12:34:13;;;;;;;7.25;3.78;;;28.70;54.00;;;;;;4325806;32;20074;-72
2021/05/30 12:36:44;;;;;;;9.40;4.05;;;29.00;50.70;;;;;;4335901;32;20054;-70
2021/05/30 12:39:16;;;;;;;4.55;3.62;;;28.90;50.90;;;;;;4332814;32;20149;-72
2021/05/30 12:41:48;;;;;;;5.62;3.47;;;28.70;50.80;;;;;;4329580;32;20593;-71
2021/05/30 12:44:22;;;;;;;4.72;3.40;;;29.10;51.50;;;;;;4340271;32;20069;-73
2021/05/30 12:46:59;;;;;;;4.37;3.40;;;28.90;50.90;;;;;;4327893;32;20076;-73
2021/05/30 12:49:25;;;;;;;6.57;3.67;;;29.30;47.20;;;;;;4313022;32;20063;-72
2021/05/30 12:52:17;;;;;;;8.90;3.80;;;29.00;49.10;;;;;;4345028;32;20078;-72
2021/05/30 12:54:44;;;;;;;5.05;3.47;;;29.10;50.80;;;;;;4340731;32;20074;-72
2021/05/30 12:57:13;;;;;;;7.65;3.55;;;29.00;48.10;;;;;;4348414;32;20157;-73
2021/05/30 12:59:48;;;;;;;6.15;3.45;;;29.10;47.50;;;;;;4353352;32;20083;-72
2021/05/30 13:02:15;;;;;;;6.75;3.50;;;29.20;47.00;;;;;;4344600;32;20074;-72